Amazigh S1 — T8A2074 — position and weather

sailwx.info

Track history (hours):
 
Tides and Currents Weather Stations Pressure Air Temp Water Temp Dewpoint Dewpoint Depression Visibility Wind Speed Wind Dir Waves Ship Positions

Amazigh S1

Last reported at 2018-Jun-11 17:58 UTC. Time now 2018-Jun-19 19:51 UTC.
Position N 44°28' E 012°15'.
Warning: this ship's position is 8 days out of date.

Length 95 m.

Type: Cargo ship. MMSI: 511116000.

Date/timePositionNaut miles runAvg speedWind from/ knotsBaromVisibWave heightAir tempDewpointWater temp
2018-Jun-11 17:58N 44°28' E 012°15'0 0.0
2018-Jun-11 17:01N 44°28' E 012°15'0 0.0
2018-Jun-11 16:58N 44°28' E 012°15'0 0.0
2018-Jun-11 11:58N 44°28' E 012°15'14 1.9
2018-Jun-11 04:40N 44°29' E 012°35'0 2.3
2018-Jun-11 04:30N 44°29' E 012°36'  
2018-Jun-06 23:11N 36°20' E 014°36'4 8.4
2018-Jun-06 22:44N 36°18' E 014°32'2 8.4
2018-Jun-06 22:28N 36°17' E 014°30'4 8.5
2018-Jun-06 22:00N 36°15' E 014°26'4 8.5
2018-Jun-06 21:30N 36°13' E 014°21'4 8.2
2018-Jun-06 20:59N 36°11' E 014°17'4 8.1
2018-Jun-06 20:29N 36°09' E 014°12'4 7.9
2018-Jun-06 20:00N 36°07' E 014°08'4 7.7
2018-Jun-06 19:30N 36°04' E 014°05'12 7.7
2018-Jun-06 17:57N 35°57' E 013°53'4 8.1
2018-Jun-06 17:30N 35°54' E 013°50'  
Track history (hours):
 
Tides and Currents Weather Stations Pressure Air Temp Water Temp Dewpoint Dewpoint Depression Visibility Wind Speed Wind Dir Waves Ship Positions

Amazigh S1

Last reported at 2018-Jun-11 17:58 UTC. Time now 2018-Jun-19 19:51 UTC.
Position N 44°28' E 012°15'.
Warning: this ship's position is 8 days out of date.

Length 95 m.

Type: Cargo ship. MMSI: 511116000.

Date/timePositionNaut miles runAvg speedWind from/ knotsBaromVisibWave heightAir tempDewpointWater temp
2018-Jun-11 17:58N 44°28' E 012°15'0 0.0
2018-Jun-11 17:01N 44°28' E 012°15'0 0.0
2018-Jun-11 16:58N 44°28' E 012°15'0 0.0
2018-Jun-11 11:58N 44°28' E 012°15'14 1.9
2018-Jun-11 04:40N 44°29' E 012°35'0 2.3
2018-Jun-11 04:30N 44°29' E 012°36'  
2018-Jun-06 23:11N 36°20' E 014°36'4 8.4
2018-Jun-06 22:44N 36°18' E 014°32'2 8.4
2018-Jun-06 22:28N 36°17' E 014°30'4 8.5
2018-Jun-06 22:00N 36°15' E 014°26'4 8.5
2018-Jun-06 21:30N 36°13' E 014°21'4 8.2
2018-Jun-06 20:59N 36°11' E 014°17'4 8.1
2018-Jun-06 20:29N 36°09' E 014°12'4 7.9
2018-Jun-06 20:00N 36°07' E 014°08'4 7.7
2018-Jun-06 19:30N 36°04' E 014°05'12 7.7
2018-Jun-06 17:57N 35°57' E 013°53'4 8.1
2018-Jun-06 17:30N 35°54' E 013°50'  

Dump ship's entire track history